sensor_id;sensor_type;location;lat;lon;timestamp;P1;durP1;ratioP1;P2;durP2;ratioP2
27013;SDS011;14556;52.222;4.510;2023-03-20T00:00:02;8.80;;;2.50;;
27013;SDS011;14556;52.222;4.510;2023-03-20T00:02:29;5.90;;;2.77;;
27013;SDS011;14556;52.222;4.510;2023-03-20T00:04:55;8.47;;;2.73;;
27013;SDS011;14556;52.222;4.510;2023-03-20T00:07:22;8.03;;;2.97;;
27013;SDS011;14556;52.222;4.510;2023-03-20T00:09:48;4.60;;;2.43;;
27013;SDS011;14556;52.222;4.510;2023-03-20T00:12:17;6.87;;;2.57;;
27013;SDS011;14556;52.222;4.510;2023-03-20T00:14:47;8.20;;;2.33;;
27013;SDS011;14556;52.222;4.510;2023-03-20T00:17:14;5.97;;;3.43;;
27013;SDS011;14556;52.222;4.510;2023-03-20T00:19:43;7.83;;;2.90;;
27013;SDS011;14556;52.222;4.510;2023-03-20T00:22:09;4.13;;;2.40;;
27013;SDS011;14556;52.222;4.510;2023-03-20T00:24:36;8.30;;;2.47;;
27013;SDS011;14556;52.222;4.510;2023-03-20T00:27:02;9.17;;;2.83;;
27013;SDS011;14556;52.222;4.510;2023-03-20T00:29:31;7.07;;;2.60;;
27013;SDS011;14556;52.222;4.510;2023-03-20T00:31:57;8.40;;;2.90;;
27013;SDS011;14556;52.222;4.510;2023-03-20T00:34:26;5.37;;;2.70;;
27013;SDS011;14556;52.222;4.510;2023-03-20T00:36:54;4.70;;;3.03;;
27013;SDS011;14556;52.222;4.510;2023-03-20T00:39:21;6.30;;;3.33;;
27013;SDS011;14556;52.222;4.510;2023-03-20T00:41:50;7.50;;;2.80;;
27013;SDS011;14556;52.222;4.510;2023-03-20T00:44:24;10.03;;;3.60;;
27013;SDS011;14556;52.222;4.510;2023-03-20T00:46:53;4.93;;;2.83;;
27013;SDS011;14556;52.222;4.510;2023-03-20T00:49:20;6.97;;;3.33;;
27013;SDS011;14556;52.222;4.510;2023-03-20T00:51:47;6.00;;;3.10;;
27013;SDS011;14556;52.222;4.510;2023-03-20T00:54:15;7.77;;;3.87;;
27013;SDS011;14556;52.222;4.510;2023-03-20T00:56:43;7.60;;;3.20;;
27013;SDS011;14556;52.222;4.510;2023-03-20T00:59:15;6.60;;;3.80;;
27013;SDS011;14556;52.222;4.510;2023-03-20T01:01:43;10.77;;;4.03;;
27013;SDS011;14556;52.222;4.510;2023-03-20T01:04:13;6.57;;;3.57;;
27013;SDS011;14556;52.222;4.510;2023-03-20T01:06:40;12.73;;;4.10;;
27013;SDS011;14556;52.222;4.510;2023-03-20T01:09:07;8.40;;;3.57;;
27013;SDS011;14556;52.222;4.510;2023-03-20T01:11:33;12.20;;;3.87;;
27013;SDS011;14556;52.222;4.510;2023-03-20T01:14:00;6.87;;;3.57;;
27013;SDS011;14556;52.222;4.510;2023-03-20T01:16:27;9.63;;;3.57;;
27013;SDS011;14556;52.222;4.510;2023-03-20T01:18:54;7.97;;;3.73;;
27013;SDS011;14556;52.222;4.510;2023-03-20T01:21:20;10.43;;;4.23;;
27013;SDS011;14556;52.222;4.510;2023-03-20T01:23:47;9.63;;;4.00;;
27013;SDS011;14556;52.222;4.510;2023-03-20T01:26:18;7.97;;;3.47;;
27013;SDS011;14556;52.222;4.510;2023-03-20T01:28:46;10.90;;;3.87;;
27013;SDS011;14556;52.222;4.510;2023-03-20T01:31:14;7.37;;;3.60;;
27013;SDS011;14556;52.222;4.510;2023-03-20T01:33:41;6.17;;;3.33;;
27013;SDS011;14556;52.222;4.510;2023-03-20T01:36:11;10.83;;;4.30;;
27013;SDS011;14556;52.222;4.510;2023-03-20T01:38:38;8.97;;;3.83;;
27013;SDS011;14556;52.222;4.510;2023-03-20T01:43:32;8.23;;;3.93;;
27013;SDS011;14556;52.222;4.510;2023-03-20T01:48:27;9.77;;;3.93;;
27013;SDS011;14556;52.222;4.510;2023-03-20T01:50:58;7.33;;;2.87;;
27013;SDS011;14556;52.222;4.510;2023-03-20T01:53:24;8.97;;;3.90;;
27013;SDS011;14556;52.222;4.510;2023-03-20T01:55:52;11.67;;;4.03;;
27013;SDS011;14556;52.222;4.510;2023-03-20T01:58:24;11.13;;;3.80;;
27013;SDS011;14556;52.222;4.510;2023-03-20T02:00:51;9.20;;;3.90;;
27013;SDS011;14556;52.222;4.510;2023-03-20T02:03:19;10.17;;;4.17;;
27013;SDS011;14556;52.222;4.510;2023-03-20T02:05:46;7.57;;;3.73;;
27013;SDS011;14556;52.222;4.510;2023-03-20T02:10:39;6.20;;;3.43;;
27013;SDS011;14556;52.222;4.510;2023-03-20T02:13:06;11.57;;;4.00;;
27013;SDS011;14556;52.222;4.510;2023-03-20T02:15:33;12.97;;;4.10;;
27013;SDS011;14556;52.222;4.510;2023-03-20T02:18:00;12.13;;;4.13;;
27013;SDS011;14556;52.222;4.510;2023-03-20T02:36:07;9.13;;;3.63;;
27013;SDS011;14556;52.222;4.510;2023-03-20T02:41:23;10.10;;;5.00;;
27013;SDS011;14556;52.222;4.510;2023-03-20T02:49:18;11.23;;;5.10;;
27013;SDS011;14556;52.222;4.510;2023-03-20T02:51:53;9.43;;;4.83;;
27013;SDS011;14556;52.222;4.510;2023-03-20T02:56:56;11.57;;;5.47;;
27013;SDS011;14556;52.222;4.510;2023-03-20T03:04:31;9.57;;;5.10;;
27013;SDS011;14556;52.222;4.510;2023-03-20T03:06:59;11.37;;;4.80;;
27013;SDS011;14556;52.222;4.510;2023-03-20T03:09:32;10.83;;;5.03;;
27013;SDS011;14556;52.222;4.510;2023-03-20T03:12:00;14.80;;;5.87;;
27013;SDS011;14556;52.222;4.510;2023-03-20T03:14:31;13.57;;;5.77;;
27013;SDS011;14556;52.222;4.510;2023-03-20T03:17:00;10.07;;;5.93;;
27013;SDS011;14556;52.222;4.510;2023-03-20T03:19:27;12.67;;;5.70;;
27013;SDS011;14556;52.222;4.510;2023-03-20T03:21:54;10.83;;;6.10;;
27013;SDS011;14556;52.222;4.510;2023-03-20T03:24:28;11.67;;;6.50;;
27013;SDS011;14556;52.222;4.510;2023-03-20T03:27:12;14.43;;;6.80;;
27013;SDS011;14556;52.222;4.510;2023-03-20T03:29:40;12.43;;;6.60;;
27013;SDS011;14556;52.222;4.510;2023-03-20T03:32:19;13.67;;;6.27;;
27013;SDS011;14556;52.222;4.510;2023-03-20T03:34:46;14.67;;;6.97;;
27013;SDS011;14556;52.222;4.510;2023-03-20T03:37:19;17.13;;;7.53;;
27013;SDS011;14556;52.222;4.510;2023-03-20T03:39:52;12.90;;;6.43;;
27013;SDS011;14556;52.222;4.510;2023-03-20T03:42:22;15.60;;;7.17;;
27013;SDS011;14556;52.222;4.510;2023-03-20T03:45:00;17.40;;;7.23;;
27013;SDS011;14556;52.222;4.510;2023-03-20T03:47:30;17.57;;;7.43;;
27013;SDS011;14556;52.222;4.510;2023-03-20T03:50:01;14.77;;;7.70;;
27013;SDS011;14556;52.222;4.510;2023-03-20T03:52:28;15.90;;;7.50;;
27013;SDS011;14556;52.222;4.510;2023-03-20T03:54:57;14.70;;;7.83;;
27013;SDS011;14556;52.222;4.510;2023-03-20T03:57:45;16.03;;;6.90;;
27013;SDS011;14556;52.222;4.510;2023-03-20T04:00:12;18.80;;;7.93;;
27013;SDS011;14556;52.222;4.510;2023-03-20T04:02:42;13.53;;;7.50;;
27013;SDS011;14556;52.222;4.510;2023-03-20T04:05:09;16.90;;;7.10;;
27013;SDS011;14556;52.222;4.510;2023-03-20T04:07:36;19.83;;;8.03;;
27013;SDS011;14556;52.222;4.510;2023-03-20T04:10:04;15.80;;;7.47;;
27013;SDS011;14556;52.222;4.510;2023-03-20T04:12:34;15.83;;;8.30;;
27013;SDS011;14556;52.222;4.510;2023-03-20T04:15:01;18.30;;;8.40;;
27013;SDS011;14556;52.222;4.510;2023-03-20T04:17:28;15.00;;;7.57;;
27013;SDS011;14556;52.222;4.510;2023-03-20T04:19:56;17.17;;;7.60;;
27013;SDS011;14556;52.222;4.510;2023-03-20T04:22:23;14.07;;;6.77;;
27013;SDS011;14556;52.222;4.510;2023-03-20T04:24:49;17.50;;;7.47;;
27013;SDS011;14556;52.222;4.510;2023-03-20T04:27:17;14.30;;;8.13;;
27013;SDS011;14556;52.222;4.510;2023-03-20T04:29:44;13.03;;;7.63;;
27013;SDS011;14556;52.222;4.510;2023-03-20T04:32:10;15.33;;;8.03;;
27013;SDS011;14556;52.222;4.510;2023-03-20T04:34:37;16.90;;;7.93;;
27013;SDS011;14556;52.222;4.510;2023-03-20T04:37:03;18.60;;;7.80;;
27013;SDS011;14556;52.222;4.510;2023-03-20T04:39:33;14.90;;;7.60;;
27013;SDS011;14556;52.222;4.510;2023-03-20T04:41:59;14.63;;;8.07;;
27013;SDS011;14556;52.222;4.510;2023-03-20T04:44:26;12.87;;;7.97;;
27013;SDS011;14556;52.222;4.510;2023-03-20T04:46:52;12.33;;;7.23;;
27013;SDS011;14556;52.222;4.510;2023-03-20T04:49:19;17.23;;;8.67;;
27013;SDS011;14556;52.222;4.510;2023-03-20T04:51:45;13.17;;;7.37;;
27013;SDS011;14556;52.222;4.510;2023-03-20T04:54:11;18.63;;;7.93;;
27013;SDS011;14556;52.222;4.510;2023-03-20T04:56:38;16.63;;;7.73;;
27013;SDS011;14556;52.222;4.510;2023-03-20T04:59:04;17.50;;;8.20;;
27013;SDS011;14556;52.222;4.510;2023-03-20T05:01:31;16.70;;;8.43;;
27013;SDS011;14556;52.222;4.510;2023-03-20T05:03:57;12.87;;;7.53;;
27013;SDS011;14556;52.222;4.510;2023-03-20T05:06:26;17.10;;;8.17;;
27013;SDS011;14556;52.222;4.510;2023-03-20T05:08:53;14.97;;;7.93;;
27013;SDS011;14556;52.222;4.510;2023-03-20T05:11:19;19.90;;;8.53;;
27013;SDS011;14556;52.222;4.510;2023-03-20T05:13:45;14.63;;;7.80;;
27013;SDS011;14556;52.222;4.510;2023-03-20T05:16:12;13.47;;;7.60;;
27013;SDS011;14556;52.222;4.510;2023-03-20T05:18:38;14.97;;;7.60;;
27013;SDS011;14556;52.222;4.510;2023-03-20T05:21:05;15.97;;;7.97;;
27013;SDS011;14556;52.222;4.510;2023-03-20T05:23:32;16.00;;;8.07;;
27013;SDS011;14556;52.222;4.510;2023-03-20T05:25:58;14.03;;;7.33;;
27013;SDS011;14556;52.222;4.510;2023-03-20T05:28:25;14.33;;;9.07;;
27013;SDS011;14556;52.222;4.510;2023-03-20T05:30:52;14.40;;;7.80;;
27013;SDS011;14556;52.222;4.510;2023-03-20T05:33:18;11.87;;;7.70;;
27013;SDS011;14556;52.222;4.510;2023-03-20T05:35:44;14.03;;;8.10;;
27013;SDS011;14556;52.222;4.510;2023-03-20T05:38:11;20.07;;;8.70;;
27013;SDS011;14556;52.222;4.510;2023-03-20T05:40:38;20.47;;;8.37;;
27013;SDS011;14556;52.222;4.510;2023-03-20T05:43:04;13.53;;;7.97;;
27013;SDS011;14556;52.222;4.510;2023-03-20T05:45:30;13.37;;;8.00;;
27013;SDS011;14556;52.222;4.510;2023-03-20T05:47:57;15.37;;;7.77;;
27013;SDS011;14556;52.222;4.510;2023-03-20T05:50:23;16.87;;;7.33;;
27013;SDS011;14556;52.222;4.510;2023-03-20T05:52:49;15.73;;;7.87;;
27013;SDS011;14556;52.222;4.510;2023-03-20T05:55:16;15.10;;;8.03;;
27013;SDS011;14556;52.222;4.510;2023-03-20T05:57:42;15.70;;;6.13;;
27013;SDS011;14556;52.222;4.510;2023-03-20T06:00:09;18.07;;;7.27;;
27013;SDS011;14556;52.222;4.510;2023-03-20T06:02:36;16.97;;;7.67;;
27013;SDS011;14556;52.222;4.510;2023-03-20T06:05:02;14.40;;;6.73;;
27013;SDS011;14556;52.222;4.510;2023-03-20T06:07:29;13.20;;;7.00;;
27013;SDS011;14556;52.222;4.510;2023-03-20T06:09:55;19.43;;;7.10;;
27013;SDS011;14556;52.222;4.510;2023-03-20T06:12:21;16.53;;;7.60;;
27013;SDS011;14556;52.222;4.510;2023-03-20T06:14:49;11.83;;;6.87;;
27013;SDS011;14556;52.222;4.510;2023-03-20T06:17:15;15.83;;;7.17;;
27013;SDS011;14556;52.222;4.510;2023-03-20T06:19:42;17.27;;;7.50;;
27013;SDS011;14556;52.222;4.510;2023-03-20T06:22:08;17.07;;;7.53;;
27013;SDS011;14556;52.222;4.510;2023-03-20T06:24:34;13.20;;;7.30;;
27013;SDS011;14556;52.222;4.510;2023-03-20T06:27:01;15.93;;;7.10;;
27013;SDS011;14556;52.222;4.510;2023-03-20T06:29:27;14.27;;;6.77;;
27013;SDS011;14556;52.222;4.510;2023-03-20T06:31:54;14.47;;;6.67;;
27013;SDS011;14556;52.222;4.510;2023-03-20T06:34:20;15.57;;;7.33;;
27013;SDS011;14556;52.222;4.510;2023-03-20T06:36:46;23.53;;;7.23;;
27013;SDS011;14556;52.222;4.510;2023-03-20T06:39:13;17.23;;;7.03;;
27013;SDS011;14556;52.222;4.510;2023-03-20T06:41:40;15.73;;;6.83;;
27013;SDS011;14556;52.222;4.510;2023-03-20T06:44:06;13.60;;;6.70;;
27013;SDS011;14556;52.222;4.510;2023-03-20T06:46:32;16.03;;;6.27;;
27013;SDS011;14556;52.222;4.510;2023-03-20T06:48:59;17.23;;;6.90;;
27013;SDS011;14556;52.222;4.510;2023-03-20T06:51:26;16.17;;;6.40;;
27013;SDS011;14556;52.222;4.510;2023-03-20T06:53:52;14.70;;;5.93;;
27013;SDS011;14556;52.222;4.510;2023-03-20T06:56:20;14.03;;;5.90;;
27013;SDS011;14556;52.222;4.510;2023-03-20T06:58:46;12.73;;;5.93;;
27013;SDS011;14556;52.222;4.510;2023-03-20T07:01:13;9.80;;;6.30;;
27013;SDS011;14556;52.222;4.510;2023-03-20T07:03:41;14.97;;;6.27;;
27013;SDS011;14556;52.222;4.510;2023-03-20T07:06:08;15.23;;;5.67;;
27013;SDS011;14556;52.222;4.510;2023-03-20T07:08:35;17.27;;;6.07;;
27013;SDS011;14556;52.222;4.510;2023-03-20T07:11:02;16.03;;;6.30;;
27013;SDS011;14556;52.222;4.510;2023-03-20T07:13:30;14.10;;;5.97;;
27013;SDS011;14556;52.222;4.510;2023-03-20T07:15:56;18.30;;;5.63;;
27013;SDS011;14556;52.222;4.510;2023-03-20T07:18:30;11.73;;;5.77;;
27013;SDS011;14556;52.222;4.510;2023-03-20T07:20:57;16.23;;;6.00;;
27013;SDS011;14556;52.222;4.510;2023-03-20T07:23:24;14.40;;;5.80;;
27013;SDS011;14556;52.222;4.510;2023-03-20T07:25:50;19.50;;;5.40;;
27013;SDS011;14556;52.222;4.510;2023-03-20T07:28:17;11.67;;;4.40;;
27013;SDS011;14556;52.222;4.510;2023-03-20T07:30:43;14.47;;;5.03;;
27013;SDS011;14556;52.222;4.510;2023-03-20T07:33:11;14.87;;;4.20;;
27013;SDS011;14556;52.222;4.510;2023-03-20T07:35:37;11.17;;;4.80;;
27013;SDS011;14556;52.222;4.510;2023-03-20T07:38:04;16.07;;;4.60;;
27013;SDS011;14556;52.222;4.510;2023-03-20T07:40:32;9.43;;;3.97;;
27013;SDS011;14556;52.222;4.510;2023-03-20T07:42:58;12.07;;;3.73;;
27013;SDS011;14556;52.222;4.510;2023-03-20T07:45:26;11.60;;;4.80;;
27013;SDS011;14556;52.222;4.510;2023-03-20T07:47:52;14.43;;;3.90;;
27013;SDS011;14556;52.222;4.510;2023-03-20T07:50:19;8.83;;;3.90;;
27013;SDS011;14556;52.222;4.510;2023-03-20T07:52:49;10.70;;;3.37;;
27013;SDS011;14556;52.222;4.510;2023-03-20T07:55:16;17.23;;;4.50;;
27013;SDS011;14556;52.222;4.510;2023-03-20T07:57:43;12.27;;;3.53;;
27013;SDS011;14556;52.222;4.510;2023-03-20T08:00:10;8.27;;;3.27;;
27013;SDS011;14556;52.222;4.510;2023-03-20T08:02:37;8.10;;;3.07;;
27013;SDS011;14556;52.222;4.510;2023-03-20T08:05:03;12.13;;;3.90;;
27013;SDS011;14556;52.222;4.510;2023-03-20T08:07:31;12.97;;;3.87;;
27013;SDS011;14556;52.222;4.510;2023-03-20T08:09:58;11.30;;;4.23;;
27013;SDS011;14556;52.222;4.510;2023-03-20T08:12:24;14.90;;;4.67;;
27013;SDS011;14556;52.222;4.510;2023-03-20T08:14:51;8.67;;;3.63;;
27013;SDS011;14556;52.222;4.510;2023-03-20T08:17:18;6.80;;;3.97;;
27013;SDS011;14556;52.222;4.510;2023-03-20T08:19:47;11.23;;;3.43;;
27013;SDS011;14556;52.222;4.510;2023-03-20T08:22:13;7.97;;;3.73;;
27013;SDS011;14556;52.222;4.510;2023-03-20T08:24:39;11.97;;;3.40;;
27013;SDS011;14556;52.222;4.510;2023-03-20T08:27:06;10.60;;;3.53;;
27013;SDS011;14556;52.222;4.510;2023-03-20T08:29:32;14.13;;;3.30;;
27013;SDS011;14556;52.222;4.510;2023-03-20T08:31:59;15.13;;;3.67;;
27013;SDS011;14556;52.222;4.510;2023-03-20T08:34:25;7.20;;;3.27;;
27013;SDS011;14556;52.222;4.510;2023-03-20T08:36:52;9.77;;;3.50;;
27013;SDS011;14556;52.222;4.510;2023-03-20T08:39:18;6.80;;;2.93;;
27013;SDS011;14556;52.222;4.510;2023-03-20T08:41:45;13.77;;;4.53;;
27013;SDS011;14556;52.222;4.510;2023-03-20T08:44:11;8.00;;;2.63;;
27013;SDS011;14556;52.222;4.510;2023-03-20T08:46:38;12.73;;;2.97;;
27013;SDS011;14556;52.222;4.510;2023-03-20T08:49:05;8.30;;;3.23;;
27013;SDS011;14556;52.222;4.510;2023-03-20T08:51:31;7.03;;;3.80;;
27013;SDS011;14556;52.222;4.510;2023-03-20T08:53:58;8.53;;;3.20;;
27013;SDS011;14556;52.222;4.510;2023-03-20T08:56:24;8.80;;;3.87;;
27013;SDS011;14556;52.222;4.510;2023-03-20T08:58:51;8.67;;;3.37;;
27013;SDS011;14556;52.222;4.510;2023-03-20T09:01:21;12.43;;;2.87;;
27013;SDS011;14556;52.222;4.510;2023-03-20T09:03:47;6.43;;;3.37;;
27013;SDS011;14556;52.222;4.510;2023-03-20T09:06:13;9.77;;;3.93;;
27013;SDS011;14556;52.222;4.510;2023-03-20T09:08:40;12.07;;;3.97;;
27013;SDS011;14556;52.222;4.510;2023-03-20T09:11:06;10.07;;;4.20;;
27013;SDS011;14556;52.222;4.510;2023-03-20T09:13:33;11.93;;;3.77;;
27013;SDS011;14556;52.222;4.510;2023-03-20T09:15:59;15.03;;;4.53;;
27013;SDS011;14556;52.222;4.510;2023-03-20T09:18:26;19.60;;;5.30;;
27013;SDS011;14556;52.222;4.510;2023-03-20T09:20:52;15.30;;;5.17;;
27013;SDS011;14556;52.222;4.510;2023-03-20T09:23:21;15.43;;;5.30;;
27013;SDS011;14556;52.222;4.510;2023-03-20T09:25:48;16.83;;;4.43;;
27013;SDS011;14556;52.222;4.510;2023-03-20T09:28:16;9.80;;;4.40;;
27013;SDS011;14556;52.222;4.510;2023-03-20T09:30:42;14.90;;;5.10;;
27013;SDS011;14556;52.222;4.510;2023-03-20T09:33:09;12.93;;;5.80;;
27013;SDS011;14556;52.222;4.510;2023-03-20T09:35:36;13.50;;;5.30;;
27013;SDS011;14556;52.222;4.510;2023-03-20T09:38:03;8.77;;;5.67;;
27013;SDS011;14556;52.222;4.510;2023-03-20T09:40:30;10.60;;;5.50;;
27013;SDS011;14556;52.222;4.510;2023-03-20T09:53:28;15.30;;;6.57;;
27013;SDS011;14556;52.222;4.510;2023-03-20T09:55:56;14.50;;;7.47;;
27013;SDS011;14556;52.222;4.510;2023-03-20T09:58:24;9.30;;;6.40;;
27013;SDS011;14556;52.222;4.510;2023-03-20T10:00:51;13.17;;;7.57;;
27013;SDS011;14556;52.222;4.510;2023-03-20T10:03:21;12.70;;;8.10;;
27013;SDS011;14556;52.222;4.510;2023-03-20T10:06:06;15.80;;;8.87;;
27013;SDS011;14556;52.222;4.510;2023-03-20T10:08:35;12.00;;;7.37;;
27013;SDS011;14556;52.222;4.510;2023-03-20T10:13:38;16.40;;;8.37;;
27013;SDS011;14556;52.222;4.510;2023-03-20T10:18:57;17.77;;;10.13;;
27013;SDS011;14556;52.222;4.510;2023-03-20T10:21:31;14.60;;;8.23;;
27013;SDS011;14556;52.222;4.510;2023-03-20T10:24:02;20.17;;;9.57;;
27013;SDS011;14556;52.222;4.510;2023-03-20T10:26:30;21.17;;;10.63;;
27013;SDS011;14556;52.222;4.510;2023-03-20T10:39:46;18.27;;;9.03;;
27013;SDS011;14556;52.222;4.510;2023-03-20T10:42:16;18.23;;;10.00;;
27013;SDS011;14556;52.222;4.510;2023-03-20T10:44:47;16.50;;;9.97;;
27013;SDS011;14556;52.222;4.510;2023-03-20T10:47:15;19.67;;;10.50;;
27013;SDS011;14556;52.222;4.510;2023-03-20T10:49:46;20.00;;;9.80;;
27013;SDS011;14556;52.222;4.510;2023-03-20T10:52:18;15.43;;;10.30;;
27013;SDS011;14556;52.222;4.510;2023-03-20T10:54:47;16.77;;;9.27;;
27013;SDS011;14556;52.222;4.510;2023-03-20T10:57:24;16.20;;;10.50;;
27013;SDS011;14556;52.222;4.510;2023-03-20T10:59:52;20.30;;;10.10;;
27013;SDS011;14556;52.222;4.510;2023-03-20T11:02:20;14.33;;;9.73;;
27013;SDS011;14556;52.222;4.510;2023-03-20T11:04:48;22.87;;;11.13;;
27013;SDS011;14556;52.222;4.510;2023-03-20T11:07:21;18.30;;;10.47;;
27013;SDS011;14556;52.222;4.510;2023-03-20T11:10:09;15.60;;;9.93;;
27013;SDS011;14556;52.222;4.510;2023-03-20T11:12:40;13.63;;;9.13;;
27013;SDS011;14556;52.222;4.510;2023-03-20T11:15:14;20.60;;;10.93;;
27013;SDS011;14556;52.222;4.510;2023-03-20T11:17:49;21.63;;;11.20;;
27013;SDS011;14556;52.222;4.510;2023-03-20T11:20:17;15.13;;;10.00;;
27013;SDS011;14556;52.222;4.510;2023-03-20T11:22:43;17.83;;;9.57;;
27013;SDS011;14556;52.222;4.510;2023-03-20T11:25:22;16.10;;;10.03;;
27013;SDS011;14556;52.222;4.510;2023-03-20T11:27:49;20.53;;;10.27;;
27013;SDS011;14556;52.222;4.510;2023-03-20T11:30:16;18.50;;;10.60;;
27013;SDS011;14556;52.222;4.510;2023-03-20T11:32:47;18.80;;;10.83;;
27013;SDS011;14556;52.222;4.510;2023-03-20T11:35:17;17.57;;;10.40;;
27013;SDS011;14556;52.222;4.510;2023-03-20T11:37:46;16.03;;;9.50;;
27013;SDS011;14556;52.222;4.510;2023-03-20T11:40:14;15.30;;;10.30;;
27013;SDS011;14556;52.222;4.510;2023-03-20T11:42:50;17.73;;;10.37;;
27013;SDS011;14556;52.222;4.510;2023-03-20T11:45:17;18.83;;;10.43;;
27013;SDS011;14556;52.222;4.510;2023-03-20T11:47:48;15.80;;;9.27;;
27013;SDS011;14556;52.222;4.510;2023-03-20T11:50:31;16.80;;;9.63;;
27013;SDS011;14556;52.222;4.510;2023-03-20T11:52:59;16.90;;;9.57;;
27013;SDS011;14556;52.222;4.510;2023-03-20T11:55:30;18.47;;;10.20;;
27013;SDS011;14556;52.222;4.510;2023-03-20T11:57:58;14.60;;;8.83;;
27013;SDS011;14556;52.222;4.510;2023-03-20T12:00:28;14.33;;;9.00;;
27013;SDS011;14556;52.222;4.510;2023-03-20T12:03:01;22.30;;;9.93;;
27013;SDS011;14556;52.222;4.510;2023-03-20T12:05:29;15.87;;;9.27;;
27013;SDS011;14556;52.222;4.510;2023-03-20T12:08:00;14.20;;;8.43;;
27013;SDS011;14556;52.222;4.510;2023-03-20T12:10:30;14.73;;;8.20;;
27013;SDS011;14556;52.222;4.510;2023-03-20T12:12:59;11.53;;;8.67;;
27013;SDS011;14556;52.222;4.510;2023-03-20T12:15:27;14.07;;;8.00;;
27013;SDS011;14556;52.222;4.510;2023-03-20T12:17:58;12.50;;;8.40;;
27013;SDS011;14556;52.222;4.510;2023-03-20T12:20:57;11.60;;;7.47;;
27013;SDS011;14556;52.222;4.510;2023-03-20T12:26:04;10.63;;;6.43;;
27013;SDS011;14556;52.222;4.510;2023-03-20T12:36:44;10.70;;;5.80;;
27013;SDS011;14556;52.222;4.510;2023-03-20T12:39:13;9.20;;;5.70;;
27013;SDS011;14556;52.222;4.510;2023-03-20T12:41:44;10.83;;;5.63;;
27013;SDS011;14556;52.222;4.510;2023-03-20T12:44:30;6.97;;;5.13;;
27013;SDS011;14556;52.222;4.510;2023-03-20T12:49:50;7.03;;;4.47;;
27013;SDS011;14556;52.222;4.510;2023-03-20T13:10:11;6.93;;;4.00;;
27013;SDS011;14556;52.222;4.510;2023-03-20T13:12:48;6.33;;;4.20;;
27013;SDS011;14556;52.222;4.510;2023-03-20T13:18:00;4.73;;;3.50;;
27013;SDS011;14556;52.222;4.510;2023-03-20T13:20:32;7.43;;;3.77;;
27013;SDS011;14556;52.222;4.510;2023-03-20T13:23:09;5.50;;;3.13;;
27013;SDS011;14556;52.222;4.510;2023-03-20T13:28:14;5.27;;;3.50;;
27013;SDS011;14556;52.222;4.510;2023-03-20T13:30:44;6.07;;;3.80;;
27013;SDS011;14556;52.222;4.510;2023-03-20T13:38:29;4.77;;;3.07;;
27013;SDS011;14556;52.222;4.510;2023-03-20T13:41:02;4.13;;;3.07;;
27013;SDS011;14556;52.222;4.510;2023-03-20T13:43:33;3.93;;;2.87;;
27013;SDS011;14556;52.222;4.510;2023-03-20T13:48:57;5.40;;;3.40;;
27013;SDS011;14556;52.222;4.510;2023-03-20T13:59:51;13.03;;;4.87;;
27013;SDS011;14556;52.222;4.510;2023-03-20T14:02:32;9.37;;;4.60;;
27013;SDS011;14556;52.222;4.510;2023-03-20T14:05:09;6.90;;;4.20;;
27013;SDS011;14556;52.222;4.510;2023-03-20T14:07:37;11.97;;;4.90;;
27013;SDS011;14556;52.222;4.510;2023-03-20T14:12:49;11.93;;;5.23;;
27013;SDS011;14556;52.222;4.510;2023-03-20T14:15:18;13.20;;;4.37;;
27013;SDS011;14556;52.222;4.510;2023-03-20T14:17:45;7.60;;;3.80;;
27013;SDS011;14556;52.222;4.510;2023-03-20T14:20:19;9.90;;;3.80;;
27013;SDS011;14556;52.222;4.510;2023-03-20T14:23:02;3.97;;;2.83;;
27013;SDS011;14556;52.222;4.510;2023-03-20T14:25:38;6.03;;;3.07;;
27013;SDS011;14556;52.222;4.510;2023-03-20T14:30:42;5.27;;;2.87;;
27013;SDS011;14556;52.222;4.510;2023-03-20T14:35:42;4.97;;;2.83;;
27013;SDS011;14556;52.222;4.510;2023-03-20T14:38:54;9.77;;;2.90;;
27013;SDS011;14556;52.222;4.510;2023-03-20T14:44:14;9.27;;;3.30;;
27013;SDS011;14556;52.222;4.510;2023-03-20T14:46:24;10.07;;;2.57;;
27013;SDS011;14556;52.222;4.510;2023-03-20T14:48:54;5.27;;;2.70;;
27013;SDS011;14556;52.222;4.510;2023-03-20T14:53:54;5.67;;;3.00;;
27013;SDS011;14556;52.222;4.510;2023-03-20T14:56:30;7.63;;;2.77;;
27013;SDS011;14556;52.222;4.510;2023-03-20T15:01:26;10.93;;;2.43;;
27013;SDS011;14556;52.222;4.510;2023-03-20T15:03:57;4.67;;;2.57;;
27013;SDS011;14556;52.222;4.510;2023-03-20T15:06:25;7.73;;;2.27;;
27013;SDS011;14556;52.222;4.510;2023-03-20T15:08:53;6.73;;;2.10;;
27013;SDS011;14556;52.222;4.510;2023-03-20T15:11:21;6.20;;;2.50;;
27013;SDS011;14556;52.222;4.510;2023-03-20T15:13:49;7.77;;;2.47;;
27013;SDS011;14556;52.222;4.510;2023-03-20T15:16:16;3.70;;;2.03;;
27013;SDS011;14556;52.222;4.510;2023-03-20T15:18:50;11.27;;;2.23;;
27013;SDS011;14556;52.222;4.510;2023-03-20T15:23:46;5.50;;;3.03;;
27013;SDS011;14556;52.222;4.510;2023-03-20T15:26:15;13.37;;;3.10;;
27013;SDS011;14556;52.222;4.510;2023-03-20T15:28:41;10.37;;;3.00;;
27013;SDS011;14556;52.222;4.510;2023-03-20T15:31:14;10.73;;;2.80;;
27013;SDS011;14556;52.222;4.510;2023-03-20T15:33:44;11.63;;;3.03;;
27013;SDS011;14556;52.222;4.510;2023-03-20T15:36:14;10.20;;;2.73;;
27013;SDS011;14556;52.222;4.510;2023-03-20T15:38:42;14.40;;;3.50;;
27013;SDS011;14556;52.222;4.510;2023-03-20T15:41:23;8.77;;;2.80;;
27013;SDS011;14556;52.222;4.510;2023-03-20T15:43:49;10.27;;;2.67;;
27013;SDS011;14556;52.222;4.510;2023-03-20T15:46:16;7.93;;;2.60;;
27013;SDS011;14556;52.222;4.510;2023-03-20T15:48:48;15.77;;;3.13;;
27013;SDS011;14556;52.222;4.510;2023-03-20T15:51:14;13.50;;;3.13;;
27013;SDS011;14556;52.222;4.510;2023-03-20T15:53:41;13.27;;;3.10;;
27013;SDS011;14556;52.222;4.510;2023-03-20T15:56:11;9.33;;;3.10;;
27013;SDS011;14556;52.222;4.510;2023-03-20T15:58:46;11.90;;;3.80;;
27013;SDS011;14556;52.222;4.510;2023-03-20T16:01:14;11.40;;;2.77;;
27013;SDS011;14556;52.222;4.510;2023-03-20T16:03:42;12.20;;;3.73;;
27013;SDS011;14556;52.222;4.510;2023-03-20T16:06:10;8.53;;;2.60;;
27013;SDS011;14556;52.222;4.510;2023-03-20T16:08:36;10.60;;;2.90;;
27013;SDS011;14556;52.222;4.510;2023-03-20T16:11:05;8.67;;;3.73;;
27013;SDS011;14556;52.222;4.510;2023-03-20T16:13:34;11.20;;;3.23;;
27013;SDS011;14556;52.222;4.510;2023-03-20T16:16:04;14.70;;;3.30;;
27013;SDS011;14556;52.222;4.510;2023-03-20T16:18:34;8.40;;;2.77;;
27013;SDS011;14556;52.222;4.510;2023-03-20T16:21:05;11.07;;;3.07;;
27013;SDS011;14556;52.222;4.510;2023-03-20T16:23:34;24.37;;;3.40;;
27013;SDS011;14556;52.222;4.510;2023-03-20T16:26:04;13.73;;;3.70;;
27013;SDS011;14556;52.222;4.510;2023-03-20T16:28:31;15.50;;;3.90;;
27013;SDS011;14556;52.222;4.510;2023-03-20T16:31:12;11.07;;;3.20;;
27013;SDS011;14556;52.222;4.510;2023-03-20T16:33:40;9.33;;;3.37;;
27013;SDS011;14556;52.222;4.510;2023-03-20T16:36:06;22.43;;;4.33;;
27013;SDS011;14556;52.222;4.510;2023-03-20T16:38:34;8.70;;;2.87;;
27013;SDS011;14556;52.222;4.510;2023-03-20T16:43:39;10.77;;;3.43;;
27013;SDS011;14556;52.222;4.510;2023-03-20T16:46:06;10.93;;;2.87;;
27013;SDS011;14556;52.222;4.510;2023-03-20T16:48:33;18.77;;;4.10;;
27013;SDS011;14556;52.222;4.510;2023-03-20T16:51:01;15.20;;;3.20;;
27013;SDS011;14556;52.222;4.510;2023-03-20T16:53:30;13.03;;;3.37;;
27013;SDS011;14556;52.222;4.510;2023-03-20T16:56:01;10.17;;;2.77;;
27013;SDS011;14556;52.222;4.510;2023-03-20T16:58:30;13.87;;;3.07;;
27013;SDS011;14556;52.222;4.510;2023-03-20T17:08:40;12.53;;;2.90;;
27013;SDS011;14556;52.222;4.510;2023-03-20T17:11:11;17.87;;;3.30;;
27013;SDS011;14556;52.222;4.510;2023-03-20T17:13:39;14.17;;;4.37;;